Latest Coastal Weather Observations for Robe Airport

IDS60701

Issued at 12:15 am CST Thursday 28 August 2014 (issued every 10 minutes, with the page automatically refreshed every 10 minutes)

About coastal observations | Map of coastal stations | Coastal observations for SA | Marine services | Other Formats
Station Details ID: 026105 Name: ROBE AIRFIELD Lat: -37.18 Lon: 139.81 Height: 3.0 m
Data from the previous 72 hours. | See also: Recent months at Robe Airport
Date/Time
CST
Temp

°C
Wind Pressure Rain
since 9am
mm
Weather Cloud Vis
km
Sea
Height
m
Swell
Dir
 
Speed
knots
Gust
knots
hPa Trend Height
m
Period
s
Dir
28/12:00am 3.9 WSW 0 0 1028.6 - 0.0 - - - - - - -
 
Date/Time
CST
Temp

°C
Wind Pressure Rain
since 9am
mm
Weather Cloud Vis
km
Sea
Height
m
Swell
Dir
 
Speed
knots
Gust
knots
hPa Trend Height
m
Period
s
Dir
27/11:30pm 5.5 CALM 0 0 1028.7 - 0.0 - - - - - - -
27/11:00pm 5.6 CALM 0 0 1028.8 - 0.0 - - - - - - -
27/10:30pm 5.9 CALM 0 0 1028.8 - 0.0 - - - - - - -
27/10:00pm 4.7 CALM 0 0 1028.7 - 0.0 - - - - - - -
27/09:30pm 5.1 CALM 0 0 1028.7 - 0.0 - - - - - - -
27/09:00pm 5.8 CALM 0 0 1028.4 - 0.0 - - - - - - -
27/08:30pm 5.6 CALM 0 0 1028.4 - 0.0 - - - - - - -
27/08:00pm 7.3 CALM 0 0 1028.3 - 0.0 - - - - - - -
27/07:30pm 6.6 CALM 0 0 1028.1 - 0.0 - - - - - - -
27/07:00pm 8.6 CALM 0 0 1027.9 - 0.0 - - - - - - -
27/06:30pm 11.0 CALM 0 0 1027.6 - 0.0 - - - - - - -
27/06:00pm 12.2 WSW 1 2 1027.5 - 0.0 - - - - - - -
27/05:30pm 14.6 WSW 2 3 1027.3 - 0.0 - - - - - - -
27/05:00pm 16.1 W 3 4 1027.1 - 0.0 - - - - - - -
27/04:30pm 16.3 W 3 4 1026.8 - 0.0 - - - - - - -
27/04:00pm 17.4 WNW 5 7 1026.7 - 0.0 - - - - - - -
27/03:30pm 17.5 NW 6 8 1026.7 - 0.0 - - - - - - -
27/03:00pm 17.7 NW 6 8 1026.7 - 0.0 - - - - - - -
27/02:30pm 17.7 NW 7 8 1026.7 - 0.0 - - - - - - -
27/02:00pm 18.0 NW 7 8 1026.7 - 0.0 - - - - - - -
27/01:30pm 18.1 NW 7 9 1026.6 - 0.0 - - - - - - -
27/01:00pm 18.2 NW 6 9 1026.8 - 0.0 - - - - - - -
27/12:30pm 17.8 NW 6 8 1027.1 - 0.0 - - - - - - -
27/12:00pm 17.7 NNW 7 9 1027.4 - 0.0 - - - - - - -
27/11:30am 17.1 NW 5 7 1027.9 - 0.0 - - - - - - -
27/11:00am 16.9 NW 5 7 1028.2 - 0.0 - - - - - - -
27/10:30am 16.2 NW 5 7 1028.3 - 0.0 - - - - - - -
27/10:00am 16.0 N 5 7 1028.1 - 0.0 - - - - - - -
27/09:30am 13.7 NNE 4 6 1028.3 - 0.0 - - - - - - -
27/09:00am 11.8 NNE 3 4 1028.3 - 0.0 - - - - - - -
27/08:30am 10.0 NNE 2 4 1027.9 - 0.0 - - - - - - -
27/08:00am 8.0 CALM 0 0 1027.7 - 0.0 - - - - - - -
27/07:30am 4.7 ENE 1 2 1027.5 - 0.0 - - - - - - -
27/07:00am 2.7 ENE 2 3 1027.1 - 0.0 - - - - - - -
27/06:30am 2.8 ENE 1 2 1026.8 - 0.0 - - - - - - -
27/06:00am 4.1 NE 3 4 1026.4 - 0.0 - - - - - - -
27/05:30am 4.4 NE 5 8 1025.7 - 0.0 - - - - - - -
27/05:00am 4.7 NE 3 4 1025.9 - 0.0 - - - - - - -
27/04:30am 4.1 NE 5 6 1025.7 - 0.0 - - - - - - -
27/04:00am 4.0 NE 3 4 1025.9 - 0.0 - - - - - - -
27/03:30am 2.6 NE 3 4 1026.0 - 0.0 - - - - - - -
27/03:00am 1.5 CALM 0 0 1026.1 - 0.0 - - - - - - -
27/02:30am 1.6 CALM 0 0 1026.2 - 0.0 - - - - - - -
27/02:00am 1.7 CALM 0 0 1026.2 - 0.0 - - - - - - -
27/01:30am 1.8 CALM 0 0 1026.2 - 0.0 - - - - - - -
27/01:00am 1.9 CALM 0 0 1026.6 - 0.0 - - - - - - -
27/12:30am 2.3 CALM 0 0 1026.5 - 0.0 - - - - - - -
27/12:00am 2.1 CALM 0 0 1026.4 - 0.0 - - - - - - -
 
Date/Time
CST
Temp

°C
Wind Pressure Rain
since 9am
mm
Weather Cloud Vis
km
Sea
Height
m
Swell
Dir
 
Speed
knots
Gust
knots
hPa Trend Height
m
Period
s
Dir
26/11:30pm 2.4 CALM 0 0 1026.4 - 0.0 - - - - - - -
26/11:00pm 2.1 CALM 0 0 1026.4 - 0.0 - - - - - - -
26/10:30pm 3.8 CALM 0 0 1026.5 - 0.0 - - - - - - -
26/10:00pm 2.7 CALM 0 0 1026.6 - 0.0 - - - - - - -
26/09:30pm 3.8 CALM 0 0 1026.7 - 0.0 - - - - - - -
26/09:00pm 4.1 CALM 0 0 1026.7 - 0.0 - - - - - - -
26/08:30pm 4.7 CALM 0 0 1026.7 - 0.0 - - - - - - -
26/08:00pm 5.4 CALM 0 0 1026.6 - 0.0 - - - - - - -
26/07:30pm 6.7 CALM 0 0 1026.3 - 0.0 - - - - - - -
26/07:00pm 7.1 CALM 0 0 1026.0 - 0.0 - - - - - - -
26/06:30pm 9.1 CALM 0 0 1026.0 - 0.0 - - - - - - -
26/06:00pm 10.2 CALM 0 1 1025.7 - 0.0 - - - - - - -
26/05:30pm 12.4 SW 2 3 1025.5 - 0.0 - - - - - - -
26/05:00pm 13.7 WSW 2 4 1025.4 - 0.0 - - - - - - -
26/04:30pm 14.7 WNW 3 4 1025.3 - 0.0 - - - - - - -
26/04:00pm 14.8 WNW 4 6 1025.3 - 0.0 - - - - - - -
26/03:30pm 14.9 WNW 5 7 1025.5 - 0.0 - - - - - - -
26/03:00pm 14.8 WNW 6 8 1025.7 - 0.0 - - - - - - -
26/02:30pm 15.1 NW 6 8 1025.8 - 0.0 - - - - - - -
26/02:00pm 15.7 NW 7 10 1026.0 - 0.0 - - - - - - -
26/01:30pm 15.9 WNW 7 11 1026.1 - 0.0 - - - - - - -
26/01:00pm 16.2 NW 1 5 1026.1 - 0.0 - - - - - - -
26/12:30pm 16.0 NNE 4 7 1026.4 - 0.0 - - - - - - -
26/12:00pm 15.4 ENE 3 5 1027.0 - 0.0 - - - - - - -
26/11:30am 15.2 ENE 4 6 1027.5 - 0.0 - - - - - - -
26/11:00am 14.1 ENE 5 7 1028.0 - 0.0 - - - - - - -
26/10:30am 13.2 E 5 8 1028.4 - 0.0 - - - - - - -
26/10:00am 12.7 E 7 9 1028.6 - 0.0 - - - - - - -
26/09:30am 12.1 ENE 6 8 1028.9 - 0.0 - - - - - - -
26/09:00am 11.0 E 4 7 1029.1 - 0.2 Recent precip. - - - - - -
26/08:30am 9.4 SSE 2 3 1029.1 - 0.0 - - - - - - -
26/08:00am 8.2 ESE 2 3 1029.0 - 0.0 - - - - - - -
26/07:30am 6.9 ESE 2 3 1028.8 - 0.0 - - - - - - -
26/07:00am 5.4 ESE 3 4 1028.6 - 0.0 - - - - - - -
26/06:30am 5.9 ESE 3 3 1028.3 - 0.0 - - - - - - -
26/06:00am 6.6 SE 3 4 1028.0 - 0.0 - - - - - - -
26/05:30am 6.8 SSE 4 5 1027.9 - 0.0 - - - - - - -
26/05:00am 6.7 SSE 4 5 1027.9 - 0.0 - - - - - - -
26/04:30am 7.0 SE 3 4 1027.9 - 0.0 - - - - - - -
26/04:00am 6.9 SE 3 5 1028.0 - 0.0 - - - - - - -
26/03:30am 7.3 SE 4 5 1028.1 - 0.0 - - - - - - -
26/03:00am 7.4 SE 3 4 1028.3 - 0.0 - - - - - - -
26/02:30am 7.3 SE 3 5 1028.5 - 0.0 - - - - - - -
26/02:00am 7.7 SE 5 6 1028.7 - 0.0 - - - - - - -
26/01:30am 8.3 SE 5 6 1028.9 - 0.0 - - - - - - -
26/01:00am 7.8 SSE 3 4 1029.0 - 0.0 - - - - - - -
26/12:30am 8.0 SSE 4 6 1029.0 - 0.0 - - - - - - -
26/12:00am 8.1 SE 4 5 1029.3 - 0.0 - - - - - - -
 
Date/Time
CST
Temp

°C
Wind Pressure Rain
since 9am
mm
Weather Cloud Vis
km
Sea
Height
m
Swell
Dir
 
Speed
knots
Gust
knots
hPa Trend Height
m
Period
s
Dir
25/11:30pm 8.1 SE 4 5 1029.3 - 0.0 - - - - - - -
25/11:00pm 7.8 SE 4 5 1029.4 - 0.0 - - - - - - -
25/10:30pm 7.9 SSE 3 5 1029.6 - 0.0 - - - - - - -
25/10:00pm 8.2 SSE 3 3 1029.7 - 0.0 - - - - - - -
25/09:30pm 8.5 SSE 2 2 1029.6 - 0.0 - - - - - - -
25/09:00pm 10.1 SSE 4 7 1029.9 - 0.0 - - - - - - -
25/08:30pm 10.5 SSE 6 9 1030.0 - 0.0 - - - - - - -
25/08:00pm 9.8 S 5 6 1029.9 - 0.0 - - - - - - -
25/07:30pm 10.6 S 6 7 1029.5 - 0.0 - - - - - - -
25/07:00pm 10.8 S 6 7 1029.4 - 0.0 - - - - - - -
25/06:30pm 11.6 S 7 9 1029.6 - 0.0 - - - - - - -
25/06:00pm 12.7 S 6 9 1029.5 - 0.0 - - - - - - -
25/05:30pm 13.0 S 9 12 1029.4 - 0.0 - - - - - - -
25/05:00pm 13.2 S 12 16 1029.1 - 0.0 - - - - - - -
25/04:30pm 13.5 S 10 14 1029.0 - 0.0 - - - - - - -
25/04:00pm 13.6 S 11 15 1029.0 - 0.0 - - - - - - -
25/03:30pm 13.9 S 9 13 1029.0 - 0.0 - - - - - - -
25/03:00pm 13.8 S 10 14 1029.1 - 0.0 - - - - - - -
25/02:30pm 13.8 S 10 13 1029.4 - 0.0 - - - - - - -
25/02:00pm 14.1 S 10 13 1029.5 - 0.0 - - - - - - -
25/01:30pm 14.4 S 9 14 1029.6 - 0.0 - - - - - - -
25/01:00pm 14.5 SSW 8 13 1029.8 - 0.0 - - - - - - -
25/12:30pm 14.6 SSW 7 10 1030.1 - 0.0 - - - - - - -
25/12:00pm 14.7 SSW 6 9 1030.4 - 0.0 - - - - - - -
25/11:30am 14.7 SSW 7 10 1030.7 - 0.0 - - - - - - -
25/11:00am 14.3 SSW 7 11 1031.0 - 0.0 - - - - - - -
25/10:30am 14.4 SSW 7 12 1031.4 - 0.0 - - - - - - -
25/10:00am 14.2 SSE 9 14 1031.5 - 0.0 - - - - - - -
25/09:30am 13.4 S 9 12 1031.6 - 0.0 - - - - - - -
25/09:00am 12.9 S 9 12 1031.8 - 0.0 - - - - - - -
25/08:30am 11.9 S 7 9 1031.7 - 0.0 - - - - - - -
25/08:00am 12.1 S 7 10 1031.6 - 0.0 - - - - - - -
25/07:30am 11.3 S 6 8 1031.5 - 0.0 - - - - - - -
25/07:00am 11.3 S 8 10 1031.2 - 0.0 - - - - - - -
25/06:30am 11.4 S 10 13 1030.9 - 0.0 - - - - - - -
25/06:00am 11.1 SSW 4 5 1030.6 - 0.0 - - - - - - -
25/05:30am 11.3 SSW 9 14 1030.3 - 0.0 - - - - - - -
25/05:00am 10.9 SSW 7 12 1029.9 - 0.0 - - - - - - -
25/04:30am 10.9 S 8 11 1029.8 - 0.0 - - - - - - -
25/04:00am 10.3 SSW 6 10 1029.7 - 0.0 - - - - - - -
25/03:30am 11.3 SSW 6 11 1029.5 - 0.0 - - - - - - -
25/03:00am 10.1 SSW 6 12 1029.5 - 0.0 - - - - - - -
25/02:30am 9.6 SSW 5 9 1029.6 - 0.0 - - - - - - -
25/02:00am 10.0 SSW 6 7 1029.9 - 0.0 - - - - - - -
25/01:30am 10.8 S 7 10 1029.9 - 0.0 - - - - - - -
25/01:00am 11.6 S 7 10 1030.0 - 0.0 - - - - - - -
25/12:30am 11.8 SW 4 6 1030.3 - 0.0 - - - - - - -

Other Formats:

Comma delimited format used in spreadsheet applications
http://www.bom.gov.au/fwo/IDS60701/IDS60701.95816.axf

JavaScript Object Notation format (JSON) in row-major order
http://www.bom.gov.au/fwo/IDS60701/IDS60701.95816.json